Time;durP1;ratioP1;P1;durP2;ratioP2;P2;SDS_P1;SDS_P2;PMS_P1;PMS_P2;Temp;Humidity;BMP_temperature;BMP_pressure;BME280_temperature;BME280_humidity;BME280_pressure;Samples;Min_cycle;Max_cycle;Signal;HPM_P1;HPM_P2
2022/04/14 00:00:05;;;;;;;24.37;16.37;;;;;;;17.57;65.56;100616.66;5056031;28;20763;-66
2022/04/14 00:02:33;;;;;;;27.17;16.17;;;;;;;17.57;65.80;100616.66;5058151;28;20597;-66
2022/04/14 00:05:02;;;;;;;22.47;16.63;;;;;;;17.57;65.47;100622.03;5062249;28;20348;-66
2022/04/14 00:07:30;;;;;;;24.47;17.97;;;;;;;17.55;65.28;100616.00;5059391;28;20230;-66
2022/04/14 00:09:58;;;;;;;25.87;17.77;;;;;;;17.56;65.55;100625.72;5058520;28;20325;-66
2022/04/14 00:12:25;;;;;;;27.37;17.93;;;;;;;17.48;65.71;100623.16;5063379;28;20534;-66
2022/04/14 00:14:53;;;;;;;25.40;18.13;;;;;;;17.49;66.05;100622.13;5067794;28;20306;-67
2022/04/14 00:17:21;;;;;;;20.47;17.23;;;;;;;17.49;66.05;100618.63;5068438;28;20218;-68
2022/04/14 00:19:49;;;;;;;32.63;19.60;;;;;;;17.48;66.21;100620.47;5064183;28;20203;-68
2022/04/14 00:22:18;;;;;;;27.27;19.43;;;;;;;17.46;66.22;100625.19;5063212;28;20215;-68
2022/04/14 00:24:45;;;;;;;30.27;20.40;;;;;;;17.49;66.01;100626.66;5060544;28;20354;-67
2022/04/14 00:27:13;;;;;;;31.63;20.67;;;;;;;17.44;66.36;100632.56;5061259;28;20532;-66
2022/04/14 00:29:41;;;;;;;28.27;19.47;;;;;;;17.43;66.03;100624.72;5063087;28;20235;-67
2022/04/14 00:32:09;;;;;;;27.77;20.30;;;;;;;17.37;66.62;100628.16;5060587;28;20295;-66
2022/04/14 00:34:37;;;;;;;31.67;21.37;;;;;;;17.42;66.40;100631.09;5061057;28;20221;-66
2022/04/14 00:37:05;;;;;;;33.27;20.53;;;;;;;17.40;66.38;100630.47;5061270;28;20607;-66
2022/04/14 00:39:34;;;;;;;32.40;20.37;;;;;;;17.38;66.27;100633.34;5061364;28;20275;-65
2022/04/14 00:42:02;;;;;;;27.97;20.30;;;;;;;17.41;66.31;100627.63;5061222;28;20215;-67
2022/04/14 00:44:30;;;;;;;29.47;20.23;;;;;;;17.40;66.22;100631.31;5059651;28;20303;-67
2022/04/14 00:46:57;;;;;;;29.00;20.70;;;;;;;17.40;66.37;100627.78;5057720;28;20898;-67
2022/04/14 00:49:25;;;;;;;29.87;20.67;;;;;;;17.39;66.35;100628.81;5058062;28;20755;-66
2022/04/14 00:51:53;;;;;;;29.90;21.00;;;;;;;17.33;66.77;100624.22;5061897;28;20210;-67
2022/04/14 00:54:21;;;;;;;31.70;20.57;;;;;;;17.29;66.38;100629.94;5060528;28;22343;-66
2022/04/14 00:56:50;;;;;;;30.13;20.20;;;;;;;17.32;66.64;100639.47;5060262;28;20694;-66
2022/04/14 00:59:18;;;;;;;24.77;19.77;;;;;;;17.26;66.78;100640.19;5061870;28;20781;-67
2022/04/14 01:01:45;;;;;;;28.97;21.43;;;;;;;17.24;67.18;100644.91;5059749;28;20647;-66
2022/04/14 01:04:14;;;;;;;30.47;19.93;;;;;;;17.24;66.96;100642.22;5058429;28;20727;-66
2022/04/14 01:06:42;;;;;;;26.73;19.30;;;;;;;17.22;66.82;100649.63;5059609;28;20302;-66
2022/04/14 01:09:20;;;;;;;25.40;19.60;;;;;;;17.23;67.00;100648.63;5058039;28;20306;-67
2022/04/14 01:11:51;;;;;;;27.80;19.30;;;;;;;17.17;67.06;100649.34;5058684;28;20211;-67
2022/04/14 01:14:26;;;;;;;28.43;19.67;;;;;;;17.16;67.00;100650.38;5061944;28;20577;-65
2022/04/14 01:16:54;;;;;;;23.80;19.57;;;;;;;17.14;67.32;100647.91;5061926;28;20207;-67
2022/04/14 01:19:22;;;;;;;27.03;19.53;;;;;;;17.13;67.27;100651.59;5062906;28;20746;-66
2022/04/14 01:21:57;;;;;;;25.27;19.10;;;;;;;17.11;67.00;100653.63;5063258;28;20563;-66
2022/04/14 01:24:26;;;;;;;30.87;20.63;;;;;;;17.09;67.24;100654.81;5064482;28;20660;-67
2022/04/14 01:26:55;;;;;;;28.53;19.37;;;;;;;17.08;67.11;100663.88;5064786;28;20616;-67
2022/04/14 01:29:24;;;;;;;28.80;18.50;;;;;;;17.06;67.27;100658.72;5059331;28;20665;-66
2022/04/14 01:31:54;;;;;;;25.03;18.53;;;;;;;17.03;67.44;100666.28;5060009;28;20298;-66
2022/04/14 01:34:22;;;;;;;33.77;19.43;;;;;;;17.01;67.21;100662.94;5056625;28;20219;-67
2022/04/14 01:36:49;;;;;;;28.47;18.33;;;;;;;17.01;67.42;100677.19;5061304;28;20211;-66
2022/04/14 01:39:17;;;;;;;27.13;18.47;;;;;;;17.00;67.61;100677.34;5061649;28;20214;-66
2022/04/14 01:41:46;;;;;;;23.40;17.57;;;;;;;16.97;67.50;100683.09;5059297;28;20744;-66
2022/04/14 01:44:14;;;;;;;24.80;17.07;;;;;;;16.96;67.52;100692.16;5062001;28;20215;-67
2022/04/14 01:46:43;;;;;;;24.00;19.40;;;;;;;16.96;67.73;100694.81;5057171;28;20298;-68
2022/04/14 01:49:11;;;;;;;26.60;17.97;;;;;;;16.91;67.82;100692.69;5057646;28;20211;-67
2022/04/14 01:51:40;;;;;;;27.60;18.27;;;;;;;16.90;67.55;100702.56;5062836;28;20226;-66
2022/04/14 01:54:08;;;;;;;29.43;18.03;;;;;;;16.89;67.54;100695.53;5061311;28;20644;-66
2022/04/14 01:56:35;;;;;;;24.20;18.70;;;;;;;16.82;67.96;100702.66;5057528;28;20211;-67
2022/04/14 01:59:04;;;;;;;25.47;18.47;;;;;;;16.83;67.94;100698.13;5055119;28;20211;-66
2022/04/14 02:01:32;;;;;;;23.43;17.73;;;;;;;16.83;67.95;100695.44;5062835;28;20341;-67
2022/04/14 02:04:02;;;;;;;27.23;17.30;;;;;;;16.78;68.11;100701.38;5057242;28;20328;-66
2022/04/14 02:06:30;;;;;;;28.43;18.23;;;;;;;16.78;67.95;100703.22;5059979;28;20215;-65
2022/04/14 02:08:58;;;;;;;29.33;18.73;;;;;;;16.68;68.37;100703.47;5063914;28;20207;-67
2022/04/14 02:11:27;;;;;;;23.67;17.50;;;;;;;16.69;68.56;100707.81;5063103;28;20238;-67
2022/04/14 02:13:55;;;;;;;24.67;19.00;;;;;;;16.74;68.10;100707.25;5062533;28;20315;-68
2022/04/14 02:16:24;;;;;;;25.23;16.77;;;;;;;16.72;68.12;100706.59;5057276;28;20294;-66
2022/04/14 02:18:52;;;;;;;27.23;18.30;;;;;;;16.66;68.56;100708.16;5058345;28;20211;-66
2022/04/14 02:21:20;;;;;;;25.90;17.33;;;;;;;16.70;68.18;100704.13;5060122;28;20270;-67
2022/04/14 02:23:48;;;;;;;25.67;17.60;;;;;;;16.65;68.36;100701.16;5057337;28;20562;-66
2022/04/14 02:26:16;;;;;;;25.50;17.73;;;;;;;16.63;68.83;100707.69;5058487;28;20215;-67
2022/04/14 02:28:43;;;;;;;24.47;18.23;;;;;;;16.63;68.68;100707.69;5057310;28;20243;-67
2022/04/14 02:31:14;;;;;;;28.53;18.83;;;;;;;16.62;68.50;100700.69;5060544;28;20267;-64
2022/04/14 02:33:43;;;;;;;27.53;18.43;;;;;;;16.62;68.89;100712.25;5057665;28;20203;-64
2022/04/14 02:36:11;;;;;;;24.80;17.90;;;;;;;16.60;68.67;100708.88;5061292;28;20306;-65
2022/04/14 02:38:40;;;;;;;29.83;18.63;;;;;;;16.60;68.51;100708.03;5059037;28;20215;-65
2022/04/14 02:41:08;;;;;;;23.80;18.03;;;;;;;16.60;68.89;100711.56;5060284;28;20204;-64
2022/04/14 02:43:37;;;;;;;27.07;17.53;;;;;;;16.58;68.70;100712.72;5060730;28;20207;-65
2022/04/14 02:46:05;;;;;;;28.90;17.50;;;;;;;16.57;68.50;100711.91;5054340;28;20652;-64
2022/04/14 02:48:33;;;;;;;31.83;18.87;;;;;;;16.55;68.53;100716.59;5060760;28;20306;-64
2022/04/14 02:51:02;;;;;;;27.10;18.23;;;;;;;16.58;68.59;100718.94;5059156;28;20334;-65
2022/04/14 02:53:30;;;;;;;29.03;17.83;;;;;;;16.58;68.24;100721.59;5059998;28;20239;-65
2022/04/14 02:55:57;;;;;;;29.07;18.73;;;;;;;16.54;68.64;100717.59;5059672;28;20919;-65
2022/04/14 02:58:25;;;;;;;29.33;18.07;;;;;;;16.48;68.75;100721.84;5060528;28;20282;-65
2022/04/14 03:00:53;;;;;;;29.10;17.27;;;;;;;16.47;69.21;100717.50;5061662;28;20298;-65
2022/04/14 03:03:23;;;;;;;28.67;17.67;;;;;;;16.41;69.26;100714.72;5058225;28;20215;-65
2022/04/14 03:05:51;;;;;;;24.50;17.70;;;;;;;16.43;69.05;100720.75;5063565;28;20250;-66
2022/04/14 03:08:21;;;;;;;27.13;18.37;;;;;;;16.43;69.27;100720.75;5060350;28;20239;-66
2022/04/14 03:10:49;;;;;;;29.03;19.00;;;;;;;16.41;69.09;100726.25;5057771;28;20235;-65
2022/04/14 03:13:20;;;;;;;30.83;19.40;;;;;;;16.37;69.33;100729.47;5059476;28;20537;-66
2022/04/14 03:15:49;;;;;;;26.80;18.73;;;;;;;16.37;69.01;100724.94;5060631;28;20234;-65
2022/04/14 03:18:16;;;;;;;28.60;19.97;;;;;;;16.32;69.46;100723.84;5063184;28;20750;-65
2022/04/14 03:20:44;;;;;;;31.37;20.83;;;;;;;16.31;69.33;100725.66;5066567;28;20195;-65
2022/04/14 03:23:12;;;;;;;33.37;19.30;;;;;;;16.29;69.67;100729.53;5065906;28;20208;-65
2022/04/14 03:25:41;;;;;;;26.17;19.30;;;;;;;16.27;69.31;100732.38;5062526;28;20298;-65
2022/04/14 03:28:09;;;;;;;26.27;19.60;;;;;;;16.23;69.75;100732.94;5066040;28;20290;-65
2022/04/14 03:30:37;;;;;;;24.83;19.60;;;;;;;16.27;69.57;100739.59;5064713;28;20212;-65
2022/04/14 03:33:04;;;;;;;31.07;20.63;;;;;;;16.26;69.43;100732.59;5068265;28;20221;-65
2022/04/14 03:35:34;;;;;;;31.77;20.60;;;;;;;16.23;69.71;100733.75;5066738;28;20214;-64
2022/04/14 03:38:01;;;;;;;29.27;20.53;;;;;;;16.23;69.54;100740.97;5067902;28;20316;-64
2022/04/14 03:40:50;;;;;;;30.23;21.00;;;;;;;16.23;69.49;100738.28;5064300;28;20297;-65
2022/04/14 03:43:18;;;;;;;30.83;20.07;;;;;;;16.23;69.46;100738.28;5069400;28;20207;-65
2022/04/14 03:45:46;;;;;;;29.07;20.47;;;;;;;16.20;69.95;100739.47;5067088;28;20207;-65
2022/04/14 03:48:14;;;;;;;31.93;21.97;;;;;;;16.22;69.88;100744.63;5065234;28;20722;-63
2022/04/14 03:50:41;;;;;;;34.10;22.03;;;;;;;16.21;69.54;100743.81;5064546;28;20301;-65
2022/04/14 03:53:09;;;;;;;34.50;21.80;;;;;;;16.18;69.61;100736.97;5063369;28;20725;-66
2022/04/14 03:55:37;;;;;;;26.63;20.30;;;;;;;16.18;69.88;100739.63;5066743;28;20209;-65
2022/04/14 03:58:06;;;;;;;29.53;22.00;;;;;;;16.15;69.75;100742.69;5067208;28;20659;-64
2022/04/14 04:00:34;;;;;;;27.93;20.23;;;;;;;16.17;69.91;100738.00;5065851;28;20211;-64
2022/04/14 04:03:02;;;;;;;29.33;20.60;;;;;;;16.14;69.89;100745.53;5065479;28;20203;-64
2022/04/14 04:05:30;;;;;;;30.97;21.17;;;;;;;16.11;70.13;100741.34;5065387;28;20446;-64
2022/04/14 04:07:58;;;;;;;32.27;22.03;;;;;;;16.12;70.33;100745.69;5067475;28;20621;-65
2022/04/14 04:10:25;;;;;;;32.33;21.07;;;;;;;16.11;69.63;100741.34;5068047;28;20210;-65
2022/04/14 04:12:53;;;;;;;29.67;20.63;;;;;;;16.11;70.11;100752.06;5065833;28;20259;-65
2022/04/14 04:15:22;;;;;;;31.57;20.43;;;;;;;16.10;70.13;100755.75;5067076;28;20207;-64
2022/04/14 04:17:51;;;;;;;28.90;20.27;;;;;;;16.09;69.97;100748.75;5061440;28;20199;-65
2022/04/14 04:20:19;;;;;;;34.70;22.50;;;;;;;16.07;70.24;100752.59;5065209;28;20204;-66
2022/04/14 04:22:47;;;;;;;27.50;20.37;;;;;;;16.03;70.34;100756.63;5065236;28;20207;-65
2022/04/14 04:25:15;;;;;;;31.30;21.30;;;;;;;15.95;71.06;100764.69;5061544;28;20211;-65
2022/04/14 04:27:42;;;;;;;32.43;21.87;;;;;;;15.98;70.85;100762.53;5066863;28;20867;-65
2022/04/14 04:30:10;;;;;;;32.20;21.83;;;;;;;16.00;70.61;100765.84;5062115;28;20211;-66
2022/04/14 04:32:39;;;;;;;29.90;19.80;;;;;;;16.01;70.39;100772.84;5060333;28;20323;-66
2022/04/14 04:35:08;;;;;;;33.67;22.00;;;;;;;16.01;70.35;100775.53;5062877;28;20266;-66
2022/04/14 04:37:36;;;;;;;30.67;22.80;;;;;;;16.01;70.37;100770.16;5064330;28;20206;-65
2022/04/14 04:40:05;;;;;;;31.17;21.77;;;;;;;15.99;70.65;100769.53;5064369;28;20569;-65
2022/04/14 04:42:33;;;;;;;35.57;22.07;;;;;;;15.95;70.71;100773.56;5062842;28;20207;-65
2022/04/14 04:45:00;;;;;;;32.63;19.63;;;;;;;15.99;70.64;100771.38;5060973;28;20218;-65
2022/04/14 04:47:28;;;;;;;31.30;22.30;;;;;;;15.99;70.80;100780.25;5062309;28;20711;-65
2022/04/14 04:50:00;;;;;;;33.80;21.77;;;;;;;15.99;70.88;100782.06;5062797;28;20203;-65
2022/04/14 04:52:28;;;;;;;32.97;22.47;;;;;;;15.98;70.59;100783.91;5062644;28;20227;-66
2022/04/14 04:54:56;;;;;;;30.30;21.50;;;;;;;15.96;71.27;100783.25;5061902;28;20243;-64
2022/04/14 04:57:23;;;;;;;30.13;21.63;;;;;;;15.99;70.76;100795.44;5063115;28;20207;-65
2022/04/14 04:59:51;;;;;;;31.13;22.63;;;;;;;16.00;70.97;100791.78;5059426;28;20664;-67
2022/04/14 05:02:19;;;;;;;34.53;22.83;;;;;;;15.94;71.24;100795.97;5061870;28;20637;-66
2022/04/14 05:04:46;;;;;;;29.97;20.87;;;;;;;16.02;71.07;100795.91;5062231;28;20243;-66
2022/04/14 05:07:16;;;;;;;37.23;23.33;;;;;;;16.02;71.30;100801.25;5063270;28;20187;-67
2022/04/14 05:09:43;;;;;;;32.20;21.40;;;;;;;16.04;71.24;100796.56;5062749;28;20643;-67
2022/04/14 05:12:11;;;;;;;34.20;23.20;;;;;;;16.06;70.98;100805.28;5063729;28;20266;-66
2022/04/14 05:14:39;;;;;;;31.03;20.50;;;;;;;16.08;70.90;100805.09;5064706;28;20278;-65
2022/04/14 05:17:07;;;;;;;29.73;22.00;;;;;;;16.08;71.02;100808.59;5062307;28;20204;-65
2022/04/14 05:19:35;;;;;;;31.27;22.07;;;;;;;16.09;70.96;100806.78;5063464;28;20211;-67
2022/04/14 05:22:02;;;;;;;35.33;23.03;;;;;;;16.05;71.82;100810.78;5062301;28;20863;-66
2022/04/14 05:24:32;;;;;;;32.40;22.07;;;;;;;16.09;71.40;100823.66;5061525;28;20631;-66
2022/04/14 05:27:00;;;;;;;31.10;22.27;;;;;;;16.07;71.68;100824.81;5062212;28;20211;-67
2022/04/14 05:29:28;;;;;;;31.33;21.10;;;;;;;16.08;71.25;100821.16;5061520;28;20655;-66
2022/04/14 05:31:55;;;;;;;35.67;19.83;;;;;;;16.09;71.43;100823.66;5061402;28;20231;-66
2022/04/14 05:34:23;;;;;;;30.50;20.83;;;;;;;16.12;71.23;100828.63;5062656;28;20242;-66
2022/04/14 05:36:52;;;;;;;31.50;20.00;;;;;;;16.05;71.39;100832.19;5064333;28;20217;-67
2022/04/14 05:39:20;;;;;;;27.67;20.70;;;;;;;16.08;71.56;100827.34;5060386;28;20212;-67
2022/04/14 05:41:49;;;;;;;33.07;20.73;;;;;;;16.11;72.10;100831.47;5057318;28;20230;-67
2022/04/14 05:44:20;;;;;;;30.43;19.90;;;;;;;16.09;71.55;100826.31;5061992;28;20203;-69
2022/04/14 05:46:48;;;;;;;31.07;19.60;;;;;;;15.92;72.88;100827.38;5059208;28;20301;-69
2022/04/14 05:49:16;;;;;;;27.53;18.67;;;;;;;15.87;73.94;100829.75;5061824;28;20572;-68
2022/04/14 05:51:43;;;;;;;27.53;19.93;;;;;;;16.10;72.03;100829.81;5061273;28;20216;-66
2022/04/14 05:54:11;;;;;;;29.57;19.70;;;;;;;16.13;72.45;100832.97;5061342;28;20243;-65
2022/04/14 05:56:39;;;;;;;29.87;18.97;;;;;;;16.24;71.92;100836.28;5061784;28;20207;-66
2022/04/14 05:59:15;;;;;;;34.50;20.13;;;;;;;16.32;71.58;100837.06;5061271;28;20203;-65
2022/04/14 06:01:43;;;;;;;33.60;19.97;;;;;;;16.39;71.74;100837.19;5059444;28;20417;-64
2022/04/14 06:04:11;;;;;;;29.67;19.33;;;;;;;16.43;70.85;100838.50;5060266;28;20207;-65
2022/04/14 06:06:39;;;;;;;34.57;19.57;;;;;;;16.45;71.19;100831.09;5063025;28;20204;-65
2022/04/14 06:09:07;;;;;;;27.43;18.73;;;;;;;16.44;71.06;100834.81;5061156;28;20200;-64
2022/04/14 06:11:35;;;;;;;34.83;20.93;;;;;;;16.54;70.79;100838.06;5064558;28;20204;-65
2022/04/14 06:14:06;;;;;;;26.73;19.00;;;;;;;16.59;71.12;100838.38;5063237;28;20815;-66
2022/04/14 06:16:37;;;;;;;26.27;18.57;;;;;;;16.64;70.41;100836.03;5064328;28;20754;-66
2022/04/14 06:19:05;;;;;;;30.97;20.33;;;;;;;16.70;70.47;100843.38;5060595;28;20212;-65
2022/04/14 06:21:33;;;;;;;27.40;18.57;;;;;;;16.65;70.86;100845.72;5057307;28;20373;-64
2022/04/14 06:24:01;;;;;;;31.23;20.30;;;;;;;16.59;71.58;100841.06;5059029;28;20566;-66
2022/04/14 06:26:33;;;;;;;28.27;19.70;;;;;;;16.79;70.41;100844.97;5061152;28;20545;-65
2022/04/14 06:29:02;;;;;;;26.33;19.43;;;;;;;16.79;70.51;100847.66;5061639;28;20207;-68
2022/04/14 06:31:29;;;;;;;26.07;19.37;;;;;;;16.86;69.90;100842.41;5067343;28;20219;-71
2022/04/14 06:33:58;;;;;;;30.90;19.60;;;;;;;16.95;70.30;100848.53;5062425;28;20223;-69
2022/04/14 06:36:26;;;;;;;27.40;19.13;;;;;;;17.07;69.65;100849.75;5063224;28;20235;-68
2022/04/14 06:38:54;;;;;;;25.83;19.27;;;;;;;17.10;69.45;100844.03;5061447;28;20302;-68
2022/04/14 06:41:22;;;;;;;30.23;21.17;;;;;;;17.13;69.22;100849.03;5063399;28;20253;-68
2022/04/14 06:43:51;;;;;;;29.47;19.20;;;;;;;17.18;68.78;100852.81;5061692;28;20258;-72
2022/04/14 06:46:26;;;;;;;32.97;20.20;;;;;;;17.27;68.94;100846.38;5064333;28;20230;-71
2022/04/14 06:48:56;;;;;;;25.93;18.57;;;;;;;17.37;68.65;100846.13;5058682;28;20214;-73
2022/04/14 06:51:25;;;;;;;29.93;19.57;;;;;;;17.38;68.95;100842.44;5061821;28;20302;-68
2022/04/14 06:53:53;;;;;;;27.97;19.07;;;;;;;17.38;68.73;100842.44;5054513;28;20243;-66
2022/04/14 06:56:20;;;;;;;28.00;20.00;;;;;;;17.37;68.37;100846.13;5061276;28;20253;-68
2022/04/14 06:58:48;;;;;;;23.47;19.07;;;;;;;17.26;68.48;100841.19;5060627;28;20270;-68
2022/04/14 07:01:16;;;;;;;22.43;18.70;;;;;;;17.22;68.49;100845.28;5059007;28;20215;-69
2022/04/14 07:03:44;;;;;;;33.13;18.67;;;;;;;17.17;68.99;100845.81;5064367;28;20203;-68
2022/04/14 07:06:12;;;;;;;29.47;20.07;;;;;;;17.15;69.41;100844.34;5060010;28;20209;-68
2022/04/14 07:08:41;;;;;;;33.10;20.90;;;;;;;17.06;69.46;100853.47;5061724;28;20910;-69
2022/04/14 07:11:09;;;;;;;27.37;19.50;;;;;;;17.07;69.78;100855.09;5063429;28;20207;-69
2022/04/14 07:13:36;;;;;;;36.60;21.10;;;;;;;17.07;70.01;100849.75;5066515;28;20692;-72
2022/04/14 07:16:06;;;;;;;27.30;19.90;;;;;;;17.04;69.98;100847.44;5065934;28;20234;-66
2022/04/14 07:18:34;;;;;;;25.43;18.97;;;;;;;17.04;70.14;100855.47;5063895;28;20207;-67
2022/04/14 07:21:01;;;;;;;28.33;20.37;;;;;;;17.05;69.77;100855.31;5063391;28;20524;-67
2022/04/14 07:23:30;;;;;;;29.53;20.37;;;;;;;17.01;69.98;100861.19;5063831;28;20220;-67
2022/04/14 07:25:59;;;;;;;25.17;18.93;;;;;;;17.06;70.11;100866.84;5056920;28;20515;-68
2022/04/14 07:28:27;;;;;;;29.23;19.23;;;;;;;17.05;70.42;100870.56;5058174;28;20218;-68
2022/04/14 07:30:55;;;;;;;24.97;18.40;;;;;;;17.06;70.11;100869.53;5060664;28;20203;-68
2022/04/14 07:33:23;;;;;;;29.03;18.80;;;;;;;17.01;70.73;100864.69;5059298;28;20251;-68
2022/04/14 07:35:52;;;;;;;28.83;19.43;;;;;;;17.02;70.49;100878.94;5058892;28;20211;-69
2022/04/14 07:38:20;;;;;;;28.13;19.10;;;;;;;17.04;70.21;100875.06;5057621;28;20203;-67
2022/04/14 07:40:47;;;;;;;26.63;18.93;;;;;;;17.05;69.88;100878.59;5057750;28;20242;-65
2022/04/14 07:43:16;;;;;;;30.23;19.00;;;;;;;17.09;69.96;100882.56;5061908;28;20213;-70
2022/04/14 07:45:45;;;;;;;33.20;19.97;;;;;;;17.07;69.95;100877.38;5056990;28;20215;-70
2022/04/14 07:48:13;;;;;;;29.03;19.30;;;;;;;17.10;69.68;100884.22;5056188;28;20278;-68
2022/04/14 07:50:41;;;;;;;27.90;19.60;;;;;;;17.12;70.12;100890.25;5059617;28;20207;-65
2022/04/14 07:53:09;;;;;;;29.67;19.10;;;;;;;17.15;69.70;100890.69;5063080;28;20252;-64
2022/04/14 07:55:37;;;;;;;32.47;20.53;;;;;;;17.15;70.37;100895.25;5065296;28;20208;-66
2022/04/14 07:58:07;;;;;;;29.60;19.90;;;;;;;17.18;70.54;100897.56;5061504;28;20211;-65
2022/04/14 08:00:38;;;;;;;28.70;21.43;;;;;;;17.18;69.93;100905.59;5062344;28;20211;-66
2022/04/14 08:03:07;;;;;;;28.73;21.50;;;;;;;17.11;70.35;100904.66;5060882;28;20302;-66
2022/04/14 08:05:37;;;;;;;28.33;19.77;;;;;;;17.17;70.05;100909.28;5065808;28;20207;-66
2022/04/14 08:08:06;;;;;;;35.97;21.93;;;;;;;17.18;69.70;100909.09;5067543;28;20302;-65
2022/04/14 08:10:35;;;;;;;30.60;22.43;;;;;;;17.14;70.48;100915.03;5066110;28;20234;-66
2022/04/14 08:13:03;;;;;;;28.97;21.07;;;;;;;17.19;69.47;100923.34;5061770;28;20230;-66
2022/04/14 08:15:33;;;;;;;31.70;22.63;;;;;;;17.15;70.81;100922.84;5061849;28;20204;-66
2022/04/14 08:18:06;;;;;;;34.37;23.33;;;;;;;17.15;70.65;100916.69;5063974;28;20716;-66
2022/04/14 08:20:35;;;;;;;34.27;23.20;;;;;;;17.21;70.94;100922.16;5062240;28;20278;-66
2022/04/14 08:23:04;;;;;;;30.73;22.47;;;;;;;17.23;70.42;100924.66;5055654;28;20216;-65
2022/04/14 08:25:35;;;;;;;38.60;22.90;;;;;;;17.12;70.73;100930.44;5062473;28;20687;-69
2022/04/14 08:28:05;;;;;;;33.23;23.33;;;;;;;17.25;70.22;100928.81;5063079;28;20203;-69
2022/04/14 08:30:35;;;;;;;34.30;24.30;;;;;;;17.25;70.46;100930.66;5056592;28;20691;-68
2022/04/14 08:33:07;;;;;;;33.57;22.77;;;;;;;17.36;69.67;100930.22;5061153;28;20318;-67
2022/04/14 08:35:36;;;;;;;33.00;22.07;;;;;;;17.40;69.98;100936.91;5060947;28;20653;-66
2022/04/14 08:38:06;;;;;;;32.07;22.73;;;;;;;17.52;68.77;100935.44;5063230;28;20250;-65
2022/04/14 08:40:35;;;;;;;34.57;22.57;;;;;;;17.55;69.37;100940.44;5063931;28;20199;-67
2022/04/14 08:43:04;;;;;;;38.23;23.80;;;;;;;17.63;68.59;100943.06;5062421;28;20306;-72
2022/04/14 08:45:34;;;;;;;31.37;23.23;;;;;;;17.51;69.68;100947.19;5062861;28;20354;-72
2022/04/14 08:48:03;;;;;;;33.73;24.13;;;;;;;17.62;69.21;100946.78;5062399;28;20216;-73
2022/04/14 08:50:33;;;;;;;34.37;23.03;;;;;;;17.82;68.45;100940.88;5064257;28;20624;-73
2022/04/14 08:53:04;;;;;;;36.03;22.50;;;;;;;17.93;68.59;100948.50;5061963;28;20207;-73
2022/04/14 08:55:33;;;;;;;33.30;22.60;;;;;;;18.21;67.83;100952.16;5064602;28;20220;-73
2022/04/14 08:58:01;;;;;;;33.23;23.17;;;;;;;18.71;65.37;100943.34;5063920;28;20216;-73
2022/04/14 09:00:30;;;;;;;31.00;21.93;;;;;;;19.03;65.17;100957.31;5063331;28;20215;-73
2022/04/14 09:03:00;;;;;;;26.23;18.97;;;;;;;19.21;63.64;100952.31;5059800;28;20659;-74
2022/04/14 09:05:29;;;;;;;25.00;17.77;;;;;;;19.45;61.97;100946.53;5064075;28;20199;-74
2022/04/14 09:07:58;;;;;;;25.60;17.93;;;;;;;19.77;61.20;100947.03;5062233;28;20764;-73
2022/04/14 09:10:27;;;;;;;21.17;16.20;;;;;;;19.63;60.85;100948.75;5061824;28;20203;-72
2022/04/14 09:12:54;;;;;;;22.47;16.37;;;;;;;19.65;60.79;100949.41;5065439;28;20246;-73
2022/04/14 09:15:24;;;;;;;24.37;17.97;;;;;;;19.85;60.10;100946.88;5064577;28;20623;-72
2022/04/14 09:17:58;;;;;;;22.23;16.00;;;;;;;20.08;59.80;100947.41;5062610;28;20222;-72
2022/04/14 09:20:33;;;;;;;24.37;16.70;;;;;;;20.32;59.13;100951.47;5060482;28;20208;-72
2022/04/14 09:23:13;;;;;;;24.07;16.03;;;;;;;20.53;58.07;100947.88;5064491;28;20216;-72
2022/04/14 09:25:41;;;;;;;21.50;14.80;;;;;;;20.65;58.13;100949.78;5061249;28;20246;-71
2022/04/14 09:28:09;;;;;;;20.87;14.17;;;;;;;20.75;56.75;100949.41;5063185;28;20254;-71
2022/04/14 09:30:37;;;;;;;21.70;14.13;;;;;;;20.74;55.96;100946.91;5060736;28;20635;-72
2022/04/14 09:33:05;;;;;;;18.07;14.17;;;;;;;20.88;55.88;100945.91;5063347;28;20409;-72
2022/04/14 09:36:07;;;;;;;18.40;13.33;;;;;;;21.09;54.87;100944.91;5060216;28;20219;-71
2022/04/14 09:38:56;;;;;;;24.30;14.47;;;;;;;21.12;55.24;100945.31;5058890;28;20206;-71
2022/04/14 09:41:29;;;;;;;19.17;14.40;;;;;;;21.50;54.36;100947.44;5063169;28;20204;-71
2022/04/14 09:43:58;;;;;;;19.20;13.27;;;;;;;21.78;53.69;100948.06;5062701;28;20212;-70
2022/04/14 09:46:26;;;;;;;19.33;12.80;;;;;;;21.94;53.34;100950.31;5063127;28;20238;-71
2022/04/14 09:49:03;;;;;;;20.55;13.48;;;;;;;21.59;52.74;100952.44;5061365;28;20557;-71
2022/04/14 09:51:32;;;;;;;16.90;13.38;;;;;;;21.30;53.27;100956.34;5064174;28;20253;-71
2022/04/14 09:54:12;;;;;;;17.98;12.95;;;;;;;21.74;53.10;100953.03;5060025;28;20253;-71
2022/04/14 09:56:42;;;;;;;19.05;12.90;;;;;;;21.98;52.12;100946.19;5060424;28;20261;-71
2022/04/14 09:59:12;;;;;;;19.63;12.38;;;;;;;22.04;52.52;100956.13;5062942;28;20217;-71
2022/04/14 10:01:40;;;;;;;25.08;13.38;;;;;;;22.12;51.38;100955.91;5063331;28;20217;-70
2022/04/14 10:04:10;;;;;;;23.60;13.57;;;;;;;22.25;51.66;100956.91;5064827;28;20663;-71
2022/04/14 10:06:38;;;;;;;17.20;12.48;;;;;;;22.22;51.07;100958.16;5061551;28;20247;-71
2022/04/14 10:09:07;;;;;;;17.67;11.05;;;;;;;23.10;48.93;100961.09;5063305;28;20246;-71
2022/04/14 10:11:37;;;;;;;22.83;12.55;;;;;;;24.07;45.89;100955.06;5062590;28;20298;-69
2022/04/14 10:14:12;;;;;;;17.25;12.20;;;;;;;25.55;42.17;100949.94;5054700;28;20256;-71
2022/04/14 10:16:40;;;;;;;18.00;11.50;;;;;;;26.16;41.28;100932.31;5059608;28;20731;-72
2022/04/14 10:19:09;;;;;;;17.48;11.05;;;;;;;26.02;41.46;100944.53;5061426;28;20688;-65
2022/04/14 10:21:37;;;;;;;18.90;11.98;;;;;;;24.21;45.35;100942.22;5060480;28;20211;-64
2022/04/14 10:24:08;;;;;;;20.15;12.00;;;;;;;22.89;47.87;100954.97;5057594;28;20230;-66
2022/04/14 10:26:43;;;;;;;16.75;10.38;;;;;;;22.87;48.72;100956.22;5061837;28;20260;-68
2022/04/14 10:29:12;;;;;;;18.33;11.43;;;;;;;24.64;44.29;100947.53;5059070;28;20569;-70
2022/04/14 10:31:41;;;;;;;20.23;9.98;;;;;;;23.53;46.22;100950.38;5060239;28;20229;-70
2022/04/14 10:34:09;;;;;;;12.82;9.13;;;;;;;22.48;49.21;100957.25;5063358;28;20261;-68
2022/04/14 10:36:38;;;;;;;14.93;11.35;;;;;;;21.92;49.98;100957.78;5065915;28;20257;-69
2022/04/14 10:39:11;;;;;;;17.40;10.52;;;;;;;21.70;51.09;100959.91;5064101;28;20217;-69
2022/04/14 10:41:50;;;;;;;14.70;9.80;;;;;;;22.17;49.96;100955.25;5060989;28;20239;-69
2022/04/14 10:44:21;;;;;;;10.90;8.23;;;;;;;22.10;49.35;100954.44;5060167;28;20203;-68
2022/04/14 10:46:51;;;;;;;11.68;8.05;;;;;;;24.25;45.52;100944.28;5063591;28;20209;-68
2022/04/14 10:49:25;;;;;;;11.90;8.10;;;;;;;23.72;46.24;100943.97;5063302;28;20200;-68
2022/04/14 10:51:56;;;;;;;11.32;8.80;;;;;;;23.20;47.16;100953.34;5060983;28;20261;-69
2022/04/14 10:54:25;;;;;;;17.33;8.25;;;;;;;23.59;47.03;100942.19;5064080;28;20235;-69
2022/04/14 10:56:52;;;;;;;14.20;7.97;;;;;;;24.67;43.42;100945.19;5063903;28;20529;-69
2022/04/14 10:59:22;;;;;;;11.60;8.00;;;;;;;24.09;45.37;100955.69;5064057;28;20306;-69
2022/04/14 11:02:02;;;;;;;15.85;7.75;;;;;;;24.03;45.85;100956.56;5062025;28;20306;-69
2022/04/14 11:04:33;;;;;;;12.73;7.63;;;;;;;24.02;45.57;100958.44;5064339;28;20222;-70
2022/04/14 11:07:02;;;;;;;11.10;7.75;;;;;;;23.89;45.88;100955.06;5060402;28;20580;-69
2022/04/14 11:09:52;;;;;;;11.70;6.57;;;;;;;23.15;47.14;100953.97;5062170;28;20451;-70
2022/04/14 11:12:22;;;;;;;13.82;6.22;;;;;;;22.82;47.29;100947.94;5062672;28;20306;-69
2022/04/14 11:14:53;;;;;;;14.05;5.72;;;;;;;22.60;48.33;100950.13;5057875;28;20284;-69
2022/04/14 11:17:57;;;;;;;11.15;6.82;;;;;;;22.09;49.09;100948.22;5064160;28;20215;-69